Time,TemperatureF,DewpointF,PressureIn,WindDirection,WindDirectionDegrees,WindSpeedMPH,WindSpeedGustMPH,Humidity,HourlyPrecipIn,Conditions,Clouds,dailyrainin,SoftwareType,DateUTC
2013-01-18 00:02:00,33.0,3.0,-100.00,WSW,250,29.0,38.0,28,0.00,,,-99.99,,2013-01-18 07:02:00,
2013-01-18 00:12:00,32.0,4.0,-100.00,WSW,250,27.0,38.0,29,0.00,,,-99.99,,2013-01-18 07:12:00,
2013-01-18 00:22:00,32.0,3.0,-100.00,WSW,250,28.0,40.0,29,0.00,,,-99.99,,2013-01-18 07:22:00,
2013-01-18 00:32:00,33.0,3.0,-100.00,WSW,248,30.0,41.0,28,0.00,,,-99.99,,2013-01-18 07:32:00,
2013-01-18 00:42:00,32.0,3.0,-100.00,WSW,248,28.0,39.0,29,0.00,,,-99.99,,2013-01-18 07:42:00,
2013-01-18 00:52:00,33.0,3.0,-100.00,WSW,246,27.0,39.0,28,0.00,,,-99.99,,2013-01-18 07:52:00,
2013-01-18 01:02:00,32.0,3.0,-100.00,WSW,247,25.0,37.0,28,0.00,,,-99.99,,2013-01-18 08:02:00,
2013-01-18 01:12:00,33.0,3.0,-100.00,WSW,250,24.0,34.0,28,0.00,,,-99.99,,2013-01-18 08:12:00,
2013-01-18 01:22:00,32.0,4.0,-100.00,WSW,248,26.0,37.0,29,0.00,,,-99.99,,2013-01-18 08:22:00,
2013-01-18 01:32:00,33.0,3.0,-100.00,WSW,247,28.0,41.0,28,0.00,,,-99.99,,2013-01-18 08:32:00,
2013-01-18 01:42:00,33.0,3.0,-100.00,WSW,243,28.0,42.0,27,0.00,,,-99.99,,2013-01-18 08:42:00,
2013-01-18 01:52:00,33.0,2.0,-100.00,WSW,256,28.0,42.0,27,0.00,,,-99.99,,2013-01-18 08:52:00,
2013-01-18 02:02:00,33.0,2.0,-100.00,West,260,28.0,37.0,27,0.00,,,-99.99,,2013-01-18 09:02:00,
2013-01-18 02:12:00,33.0,2.0,-100.00,WSW,257,30.0,39.0,26,0.00,,,-99.99,,2013-01-18 09:12:00,
2013-01-18 02:22:00,32.0,3.0,-100.00,WSW,254,28.0,40.0,28,0.00,,,-99.99,,2013-01-18 09:22:00,
2013-01-18 02:33:00,32.0,3.0,-100.00,WSW,257,30.0,40.0,28,0.00,,,-99.99,,2013-01-18 09:33:00,
2013-01-18 02:42:00,33.0,2.0,-100.00,WSW,256,27.0,37.0,27,0.00,,,-99.99,,2013-01-18 09:42:00,
2013-01-18 02:52:00,33.0,2.0,-100.00,WSW,251,26.0,39.0,27,0.00,,,-99.99,,2013-01-18 09:52:00,
2013-01-18 03:02:00,32.0,2.0,-100.00,WSW,251,28.0,38.0,28,0.00,,,-99.99,,2013-01-18 10:02:00,
2013-01-18 03:12:00,32.0,3.0,-100.00,WSW,251,28.0,38.0,28,0.00,,,-99.99,,2013-01-18 10:12:00,
2013-01-18 03:22:00,33.0,2.0,-100.00,WSW,250,29.0,42.0,27,0.00,,,-99.99,,2013-01-18 10:22:00,
2013-01-18 03:32:00,32.0,2.0,-100.00,WSW,250,30.0,40.0,27,0.00,,,-99.99,,2013-01-18 10:32:00,
2013-01-18 03:42:00,32.0,2.0,-100.00,WSW,254,29.0,40.0,28,0.00,,,-99.99,,2013-01-18 10:42:00,
2013-01-18 03:52:00,32.0,2.0,-100.00,WSW,253,32.0,40.0,28,0.00,,,-99.99,,2013-01-18 10:52:00,
2013-01-18 04:02:00,31.0,2.0,-100.00,WSW,254,30.0,40.0,29,0.00,,,-99.99,,2013-01-18 11:02:00,
2013-01-18 04:12:00,31.0,2.0,-100.00,WSW,254,27.0,38.0,29,0.00,,,-99.99,,2013-01-18 11:12:00,
2013-01-18 04:22:00,31.0,3.0,-100.00,WSW,257,28.0,39.0,30,0.00,,,-99.99,,2013-01-18 11:22:00,
2013-01-18 04:32:00,31.0,3.0,-100.00,West,260,27.0,36.0,30,0.00,,,-99.99,,2013-01-18 11:32:00,
2013-01-18 04:42:00,31.0,3.0,-100.00,WSW,258,26.0,34.0,30,0.00,,,-99.99,,2013-01-18 11:42:00,
2013-01-18 04:52:00,31.0,3.0,-100.00,WSW,257,27.0,36.0,30,0.00,,,-99.99,,2013-01-18 11:52:00,
2013-01-18 05:02:00,31.0,3.0,-100.00,West,260,26.0,35.0,30,0.00,,,-99.99,,2013-01-18 12:02:00,
2013-01-18 05:12:00,31.0,2.0,-100.00,West,263,24.0,34.0,29,0.00,,,-99.99,,2013-01-18 12:12:00,
2013-01-18 05:22:00,30.0,3.0,-100.00,WSW,254,27.0,35.0,30,0.00,,,-99.99,,2013-01-18 12:22:00,
2013-01-18 05:33:00,30.0,3.0,-100.00,WSW,258,22.0,31.0,31,0.00,,,-99.99,,2013-01-18 12:33:00,
2013-01-18 05:42:00,30.0,2.0,-100.00,West,261,24.0,34.0,30,0.00,,,-99.99,,2013-01-18 12:42:00,
2013-01-18 05:52:00,30.0,2.0,-100.00,WSW,257,26.0,40.0,29,0.00,,,-99.99,,2013-01-18 12:52:00,
2013-01-18 06:03:00,31.0,2.0,-100.00,WSW,258,27.0,39.0,29,0.00,,,-99.99,,2013-01-18 13:03:00,
2013-01-18 06:12:00,30.0,2.0,-100.00,WSW,257,30.0,39.0,29,0.00,,,-99.99,,2013-01-18 13:12:00,
2013-01-18 06:23:00,30.0,2.0,-100.00,WSW,253,32.0,44.0,29,0.00,,,-99.99,,2013-01-18 13:23:00,
2013-01-18 06:33:00,30.0,2.0,-100.00,WSW,254,30.0,42.0,30,0.00,,,-99.99,,2013-01-18 13:33:00,
2013-01-18 06:43:00,30.0,3.0,-100.00,WSW,256,29.0,38.0,31,0.00,,,-99.99,,2013-01-18 13:43:00,
2013-01-18 06:53:00,30.0,3.0,-100.00,WSW,257,29.0,39.0,31,0.00,,,-99.99,,2013-01-18 13:53:00,
2013-01-18 07:03:00,29.0,3.0,-100.00,WSW,256,29.0,40.0,31,0.00,,,-99.99,,2013-01-18 14:03:00,
2013-01-18 07:12:00,29.0,3.0,-100.00,WSW,254,29.0,39.0,31,0.00,,,-99.99,,2013-01-18 14:12:00,
2013-01-18 07:22:00,30.0,3.0,-100.00,West,260,28.0,39.0,31,0.00,,,-99.99,,2013-01-18 14:22:00,
2013-01-18 07:33:00,31.0,3.0,-100.00,WSW,256,29.0,40.0,30,0.00,,,-99.99,,2013-01-18 14:33:00,
2013-01-18 07:42:00,31.0,3.0,-100.00,WSW,253,30.0,41.0,30,0.00,,,-99.99,,2013-01-18 14:42:00,
2013-01-18 07:53:00,30.0,3.0,-100.00,WSW,256,28.0,39.0,31,0.00,,,-99.99,,2013-01-18 14:53:00,
2013-01-18 08:03:00,31.0,3.0,-100.00,WSW,256,28.0,39.0,30,0.00,,,-99.99,,2013-01-18 15:03:00,
2013-01-18 08:12:00,31.0,4.0,-100.00,West,260,27.0,39.0,31,0.00,,,-99.99,,2013-01-18 15:12:00,
2013-01-18 08:23:00,31.0,3.0,-100.00,WSW,257,28.0,36.0,29,0.00,,,-99.99,,2013-01-18 15:23:00,
2013-01-18 08:33:00,32.0,3.0,-100.00,WSW,250,30.0,42.0,28,0.00,,,-99.99,,2013-01-18 15:33:00,
2013-01-18 08:43:00,32.0,3.0,-100.00,WSW,246,30.0,44.0,28,0.00,,,-99.99,,2013-01-18 15:43:00,
2013-01-18 08:53:00,32.0,3.0,-100.00,WSW,246,31.0,42.0,29,0.00,,,-99.99,,2013-01-18 15:53:00,
2013-01-18 09:03:00,32.0,4.0,-100.00,WSW,243,29.0,39.0,29,0.00,,,-99.99,,2013-01-18 16:03:00,
2013-01-18 09:12:00,33.0,4.0,-100.00,WSW,240,30.0,39.0,29,0.00,,,-99.99,,2013-01-18 16:12:00,
2013-01-18 09:23:00,33.0,4.0,-100.00,WSW,244,26.0,36.0,29,0.00,,,-99.99,,2013-01-18 16:23:00,
2013-01-18 09:33:00,33.0,4.0,-100.00,WSW,248,26.0,39.0,29,0.00,,,-99.99,,2013-01-18 16:33:00,
2013-01-18 09:42:00,33.0,4.0,-100.00,WSW,248,24.0,37.0,28,0.00,,,-99.99,,2013-01-18 16:42:00,
2013-01-18 09:52:00,33.0,3.0,-100.00,WSW,253,25.0,37.0,28,0.00,,,-99.99,,2013-01-18 16:52:00,
2013-01-18 10:03:00,34.0,4.0,-100.00,WSW,250,28.0,38.0,28,0.00,,,-99.99,,2013-01-18 17:03:00,
2013-01-18 10:13:00,34.0,4.0,-100.00,WSW,248,29.0,38.0,28,0.00,,,-99.99,,2013-01-18 17:13:00,
2013-01-18 10:23:00,35.0,4.0,-100.00,WSW,250,28.0,41.0,27,0.00,,,-99.99,,2013-01-18 17:23:00,
2013-01-18 10:33:00,35.0,4.0,-100.00,WSW,254,27.0,40.0,26,0.00,,,-99.99,,2013-01-18 17:33:00,
2013-01-18 10:42:00,35.0,3.0,-100.00,WSW,250,29.0,37.0,25,0.00,,,-99.99,,2013-01-18 17:42:00,
2013-01-18 10:53:00,35.0,3.0,-100.00,WSW,248,30.0,42.0,25,0.00,,,-99.99,,2013-01-18 17:53:00,
2013-01-18 11:03:00,36.0,4.0,-100.00,WSW,253,29.0,39.0,25,0.00,,,-99.99,,2013-01-18 18:03:00,
2013-01-18 11:12:00,36.0,4.0,-100.00,WSW,251,29.0,39.0,25,0.00,,,-99.99,,2013-01-18 18:12:00,
2013-01-18 11:23:00,36.0,4.0,-100.00,WSW,254,31.0,43.0,25,0.00,,,-99.99,,2013-01-18 18:23:00,
2013-01-18 11:33:00,36.0,4.0,-100.00,WSW,250,32.0,44.0,25,0.00,,,-99.99,,2013-01-18 18:33:00,
2013-01-18 11:43:00,37.0,4.0,-100.00,WSW,254,29.0,43.0,24,0.00,,,-99.99,,2013-01-18 18:43:00,
2013-01-18 11:52:00,37.0,4.0,-100.00,WSW,258,32.0,41.0,24,0.00,,,-99.99,,2013-01-18 18:52:00,
2013-01-18 12:03:00,37.0,5.0,-100.00,West,263,27.0,40.0,25,0.00,,,-99.99,,2013-01-18 19:03:00,
2013-01-18 12:12:00,37.0,5.0,-100.00,West,263,24.0,36.0,25,0.00,,,-99.99,,2013-01-18 19:12:00,
2013-01-18 12:22:00,37.0,4.0,-100.00,West,264,26.0,39.0,24,0.00,,,-99.99,,2013-01-18 19:22:00,
2013-01-18 12:33:00,37.0,4.0,-100.00,West,271,26.0,40.0,25,0.00,,,-99.99,,2013-01-18 19:33:00,
2013-01-18 12:42:00,37.0,5.0,-100.00,West,265,26.0,40.0,25,0.00,,,-99.99,,2013-01-18 19:42:00,
2013-01-18 12:52:00,38.0,5.0,-100.00,West,260,26.0,41.0,26,0.00,,,-99.99,,2013-01-18 19:52:00,
2013-01-18 13:03:00,37.0,5.0,-100.00,WSW,256,30.0,42.0,26,0.00,,,-99.99,,2013-01-18 20:03:00,
2013-01-18 13:12:00,37.0,5.0,-100.00,WSW,254,31.0,42.0,25,0.00,,,-99.99,,2013-01-18 20:12:00,
2013-01-18 13:23:00,38.0,4.0,-100.00,West,261,26.0,43.0,24,0.00,,,-99.99,,2013-01-18 20:23:00,
2013-01-18 13:33:00,37.0,5.0,-100.00,West,271,27.0,38.0,25,0.00,,,-99.99,,2013-01-18 20:33:00,
2013-01-18 13:42:00,37.0,6.0,-100.00,West,274,27.0,39.0,26,0.00,,,-99.99,,2013-01-18 20:42:00,
2013-01-18 13:52:00,37.0,5.0,-100.00,West,261,28.0,39.0,26,0.00,,,-99.99,,2013-01-18 20:52:00,
2013-01-18 14:03:00,37.0,5.0,-100.00,West,260,29.0,41.0,26,0.00,,,-99.99,,2013-01-18 21:03:00,
2013-01-18 14:12:00,37.0,5.0,-100.00,WSW,258,32.0,44.0,25,0.00,,,-99.99,,2013-01-18 21:12:00,
2013-01-18 14:22:00,37.0,5.0,-100.00,WSW,257,29.0,42.0,26,0.00,,,-99.99,,2013-01-18 21:22:00,
2013-01-18 14:33:00,37.0,5.0,-100.00,WSW,254,32.0,46.0,25,0.00,,,-99.99,,2013-01-18 21:33:00,
2013-01-18 14:42:00,37.0,5.0,-100.00,WSW,254,32.0,47.0,25,0.00,,,-99.99,,2013-01-18 21:42:00,
2013-01-18 14:52:00,37.0,5.0,-100.00,WSW,251,27.0,40.0,25,0.00,,,-99.99,,2013-01-18 21:52:00,
2013-01-18 15:03:00,37.0,4.0,-100.00,WSW,253,29.0,42.0,24,0.00,,,-99.99,,2013-01-18 22:03:00,
2013-01-18 15:12:00,37.0,4.0,-100.00,WSW,254,30.0,42.0,25,0.00,,,-99.99,,2013-01-18 22:12:00,
2013-01-18 15:22:00,37.0,4.0,-100.00,WSW,257,25.0,35.0,25,0.00,,,-99.99,,2013-01-18 22:22:00,
2013-01-18 15:32:00,36.0,4.0,-100.00,West,263,26.0,37.0,26,0.00,,,-99.99,,2013-01-18 22:32:00,
2013-01-18 15:42:00,36.0,5.0,-100.00,West,261,24.0,34.0,26,0.00,,,-99.99,,2013-01-18 22:42:00,
2013-01-18 15:52:00,35.0,4.0,-100.00,West,260,22.0,35.0,26,0.00,,,-99.99,,2013-01-18 22:52:00,
2013-01-18 16:03:00,35.0,5.0,-100.00,WSW,254,23.0,33.0,27,0.00,,,-99.99,,2013-01-18 23:03:00,
2013-01-18 16:12:00,35.0,5.0,-100.00,WSW,253,22.0,30.0,27,0.00,,,-99.99,,2013-01-18 23:12:00,
2013-01-18 16:22:00,35.0,5.0,-100.00,WSW,253,27.0,40.0,28,0.00,,,-99.99,,2013-01-18 23:22:00,
2013-01-18 16:33:00,35.0,4.0,-100.00,WSW,256,29.0,43.0,27,0.00,,,-99.99,,2013-01-18 23:33:00,
2013-01-18 16:42:00,34.0,5.0,-100.00,WSW,257,30.0,45.0,28,0.00,,,-99.99,,2013-01-18 23:42:00,
2013-01-18 16:52:00,35.0,5.0,-100.00,WSW,253,30.0,43.0,28,0.00,,,-99.99,,2013-01-18 23:52:00,
2013-01-18 17:02:00,34.0,5.0,-100.00,WSW,256,28.0,42.0,28,0.00,,,-99.99,,2013-01-19 00:02:00,
2013-01-18 17:12:00,34.0,4.0,-100.00,WSW,256,29.0,42.0,28,0.00,,,-99.99,,2013-01-19 00:12:00,
2013-01-18 17:22:00,34.0,5.0,-100.00,WSW,257,30.0,40.0,29,0.00,,,-99.99,,2013-01-19 00:22:00,
2013-01-18 17:33:00,34.0,5.0,-100.00,West,264,33.0,42.0,29,0.00,,,-99.99,,2013-01-19 00:33:00,
2013-01-18 17:42:00,33.0,5.0,-100.00,West,260,33.0,44.0,29,0.00,,,-99.99,,2013-01-19 00:42:00,
2013-01-18 17:53:00,34.0,4.0,-100.00,WSW,258,35.0,45.0,28,0.00,,,-99.99,,2013-01-19 00:53:00,
2013-01-18 18:02:00,34.0,5.0,-100.00,WSW,257,35.0,48.0,29,0.00,,,-99.99,,2013-01-19 01:02:00,
2013-01-18 18:12:00,34.0,4.0,-100.00,WSW,257,35.0,47.0,29,0.00,,,-99.99,,2013-01-19 01:12:00,
2013-01-18 18:22:00,33.0,5.0,-100.00,WSW,257,35.0,49.0,29,0.00,,,-99.99,,2013-01-19 01:22:00,
2013-01-18 18:32:00,34.0,5.0,-100.00,West,260,33.0,46.0,29,0.00,,,-99.99,,2013-01-19 01:32:00,
2013-01-18 18:42:00,33.0,5.0,-100.00,West,264,32.0,42.0,30,0.00,,,-99.99,,2013-01-19 01:42:00,
2013-01-18 18:52:00,34.0,5.0,-100.00,West,261,32.0,45.0,29,0.00,,,-99.99,,2013-01-19 01:52:00,
2013-01-18 19:02:00,33.0,6.0,-100.00,WSW,258,31.0,41.0,31,0.00,,,-99.99,,2013-01-19 02:02:00,
2013-01-18 19:12:00,33.0,5.0,-100.00,West,260,30.0,44.0,30,0.00,,,-99.99,,2013-01-19 02:12:00,
2013-01-18 19:22:00,33.0,5.0,-100.00,West,268,27.0,39.0,31,0.00,,,-99.99,,2013-01-19 02:22:00,
2013-01-18 19:33:00,32.0,5.0,-100.00,West,278,22.0,34.0,31,0.00,,,-99.99,,2013-01-19 02:33:00,
2013-01-18 19:42:00,33.0,5.0,-100.00,West,270,27.0,37.0,30,0.00,,,-99.99,,2013-01-19 02:42:00,
2013-01-18 19:52:00,33.0,5.0,-100.00,West,264,27.0,39.0,30,0.00,,,-99.99,,2013-01-19 02:52:00,
2013-01-18 20:03:00,33.0,5.0,-100.00,West,260,29.0,41.0,30,0.00,,,-99.99,,2013-01-19 03:03:00,
2013-01-18 20:12:00,34.0,5.0,-100.00,WSW,258,33.0,47.0,29,0.00,,,-99.99,,2013-01-19 03:12:00,
2013-01-18 20:22:00,33.0,5.0,-100.00,WSW,257,31.0,45.0,30,0.00,,,-99.99,,2013-01-19 03:22:00,
2013-01-18 20:33:00,33.0,5.0,-100.00,WSW,258,30.0,45.0,30,0.00,,,-99.99,,2013-01-19 03:33:00,
2013-01-18 20:43:00,33.0,5.0,-100.00,WSW,258,34.0,44.0,29,0.00,,,-99.99,,2013-01-19 03:43:00,
2013-01-18 20:52:00,33.0,5.0,-100.00,West,263,32.0,46.0,30,0.00,,,-99.99,,2013-01-19 03:52:00,
2013-01-18 21:02:00,33.0,5.0,-100.00,West,260,31.0,43.0,31,0.00,,,-99.99,,2013-01-19 04:02:00,
2013-01-18 21:12:00,32.0,5.0,-100.00,WSW,258,31.0,44.0,31,0.00,,,-99.99,,2013-01-19 04:12:00,
2013-01-18 21:22:00,32.0,5.0,-100.00,West,261,30.0,43.0,31,0.00,,,-99.99,,2013-01-19 04:22:00,
2013-01-18 21:32:00,32.0,5.0,-100.00,West,261,29.0,40.0,31,0.00,,,-99.99,,2013-01-19 04:32:00,
2013-01-18 21:42:00,32.0,5.0,-100.00,West,260,27.0,40.0,32,0.00,,,-99.99,,2013-01-19 04:42:00,
2013-01-18 21:52:00,32.0,5.0,-100.00,WSW,256,28.0,40.0,31,0.00,,,-99.99,,2013-01-19 04:52:00,
2013-01-18 22:03:00,32.0,5.0,-100.00,WSW,253,30.0,40.0,32,0.00,,,-99.99,,2013-01-19 05:03:00,
2013-01-18 22:12:00,32.0,5.0,-100.00,WSW,253,31.0,41.0,31,0.00,,,-99.99,,2013-01-19 05:12:00,
2013-01-18 22:22:00,32.0,5.0,-100.00,WSW,256,30.0,47.0,32,0.00,,,-99.99,,2013-01-19 05:22:00,
2013-01-18 22:33:00,32.0,5.0,-100.00,WSW,258,27.0,42.0,32,0.00,,,-99.99,,2013-01-19 05:33:00,
2013-01-18 22:42:00,32.0,5.0,-100.00,WSW,254,28.0,44.0,32,0.00,,,-99.99,,2013-01-19 05:42:00,
2013-01-18 22:52:00,32.0,5.0,-100.00,WSW,247,30.0,41.0,32,0.00,,,-99.99,,2013-01-19 05:52:00,
2013-01-18 23:02:00,32.0,5.0,-100.00,West,263,26.0,42.0,31,0.00,,,-99.99,,2013-01-19 06:02:00,
2013-01-18 23:12:00,32.0,5.0,-100.00,West,264,29.0,43.0,31,0.00,,,-99.99,,2013-01-19 06:12:00,
2013-01-18 23:22:00,32.0,5.0,-100.00,West,265,27.0,39.0,32,0.00,,,-99.99,,2013-01-19 06:22:00,
2013-01-18 23:32:00,31.0,5.0,-100.00,West,261,26.0,43.0,33,0.00,,,-99.99,,2013-01-19 06:32:00,
2013-01-18 23:43:00,31.0,5.0,-100.00,WSW,258,21.0,32.0,33,0.00,,,-99.99,,2013-01-19 06:43:00,
2013-01-18 23:52:00,32.0,5.0,-100.00,West,264,29.0,40.0,32,0.00,,,-99.99,,2013-01-19 06:52:00,